sensor_id;sensor_type;location;lat;lon;timestamp;temperature;humidity
33863;DHT22;20158;51.436;-2.742;2023-05-10T00:01:40;15.10;66.00
33863;DHT22;20158;51.436;-2.742;2023-05-10T00:04:06;15.10;66.00
33863;DHT22;20158;51.436;-2.742;2023-05-10T00:06:32;15.10;66.10
33863;DHT22;20158;51.436;-2.742;2023-05-10T00:08:58;15.10;66.10
33863;DHT22;20158;51.436;-2.742;2023-05-10T00:11:24;15.10;66.10
33863;DHT22;20158;51.436;-2.742;2023-05-10T00:13:50;15.10;66.10
33863;DHT22;20158;51.436;-2.742;2023-05-10T00:16:16;15.10;66.10
33863;DHT22;20158;51.436;-2.742;2023-05-10T00:18:42;15.10;66.10
33863;DHT22;20158;51.436;-2.742;2023-05-10T00:21:08;15.10;66.20
33863;DHT22;20158;51.436;-2.742;2023-05-10T00:23:34;15.10;66.20
33863;DHT22;20158;51.436;-2.742;2023-05-10T00:26:00;15.10;66.20
33863;DHT22;20158;51.436;-2.742;2023-05-10T00:28:27;15.10;66.20
33863;DHT22;20158;51.436;-2.742;2023-05-10T00:30:54;15.10;66.30
33863;DHT22;20158;51.436;-2.742;2023-05-10T00:33:20;15.10;66.30
33863;DHT22;20158;51.436;-2.742;2023-05-10T00:35:47;15.10;66.30
33863;DHT22;20158;51.436;-2.742;2023-05-10T00:38:13;15.20;66.50
33863;DHT22;20158;51.436;-2.742;2023-05-10T00:40:41;15.10;66.40
33863;DHT22;20158;51.436;-2.742;2023-05-10T00:43:13;15.10;66.40
33863;DHT22;20158;51.436;-2.742;2023-05-10T00:45:40;15.10;66.30
33863;DHT22;20158;51.436;-2.742;2023-05-10T00:48:07;15.10;66.20
33863;DHT22;20158;51.436;-2.742;2023-05-10T00:50:32;15.10;66.20
33863;DHT22;20158;51.436;-2.742;2023-05-10T00:52:59;15.10;66.30
33863;DHT22;20158;51.436;-2.742;2023-05-10T00:55:26;15.10;66.40
33863;DHT22;20158;51.436;-2.742;2023-05-10T00:57:53;15.10;66.40
33863;DHT22;20158;51.436;-2.742;2023-05-10T01:00:19;15.20;66.60
33863;DHT22;20158;51.436;-2.742;2023-05-10T01:02:46;15.20;66.60
33863;DHT22;20158;51.436;-2.742;2023-05-10T01:05:12;15.10;66.40
33863;DHT22;20158;51.436;-2.742;2023-05-10T01:07:39;15.10;66.50
33863;DHT22;20158;51.436;-2.742;2023-05-10T01:10:08;15.20;66.60
33863;DHT22;20158;51.436;-2.742;2023-05-10T01:12:41;15.10;66.50
33863;DHT22;20158;51.436;-2.742;2023-05-10T01:15:08;15.10;67.00
33863;DHT22;20158;51.436;-2.742;2023-05-10T01:17:39;15.20;66.60
33863;DHT22;20158;51.436;-2.742;2023-05-10T01:20:07;15.20;66.60
33863;DHT22;20158;51.436;-2.742;2023-05-10T01:26:01;15.20;66.70
33863;DHT22;20158;51.436;-2.742;2023-05-10T01:28:42;15.20;66.60
33863;DHT22;20158;51.436;-2.742;2023-05-10T01:31:26;15.20;66.50
33863;DHT22;20158;51.436;-2.742;2023-05-10T01:34:07;15.20;66.40
33863;DHT22;20158;51.436;-2.742;2023-05-10T01:36:43;15.20;66.40
33863;DHT22;20158;51.436;-2.742;2023-05-10T01:39:20;15.20;66.40
33863;DHT22;20158;51.436;-2.742;2023-05-10T01:42:25;15.20;66.50
33863;DHT22;20158;51.436;-2.742;2023-05-10T01:49:56;15.20;66.60
33863;DHT22;20158;51.436;-2.742;2023-05-10T01:52:28;15.10;66.40
33863;DHT22;20158;51.436;-2.742;2023-05-10T01:55:01;15.10;66.40
33863;DHT22;20158;51.436;-2.742;2023-05-10T01:57:33;15.10;66.50
33863;DHT22;20158;51.436;-2.742;2023-05-10T02:00:02;15.10;66.50
33863;DHT22;20158;51.436;-2.742;2023-05-10T02:02:44;15.10;66.50
33863;DHT22;20158;51.436;-2.742;2023-05-10T02:05:13;15.10;66.50
33863;DHT22;20158;51.436;-2.742;2023-05-10T02:07:39;15.10;66.50
33863;DHT22;20158;51.436;-2.742;2023-05-10T02:10:07;15.10;66.50
33863;DHT22;20158;51.436;-2.742;2023-05-10T02:12:36;15.10;66.60
33863;DHT22;20158;51.436;-2.742;2023-05-10T02:15:05;15.10;66.60
33863;DHT22;20158;51.436;-2.742;2023-05-10T02:17:33;15.10;66.60
33863;DHT22;20158;51.436;-2.742;2023-05-10T02:20:01;15.10;66.70
33863;DHT22;20158;51.436;-2.742;2023-05-10T02:22:27;15.10;67.20
33863;DHT22;20158;51.436;-2.742;2023-05-10T02:24:58;15.00;66.50
33863;DHT22;20158;51.436;-2.742;2023-05-10T02:27:25;15.10;66.80
33863;DHT22;20158;51.436;-2.742;2023-05-10T02:29:53;15.00;66.60
33863;DHT22;20158;51.436;-2.742;2023-05-10T02:32:22;15.00;66.60
33863;DHT22;20158;51.436;-2.742;2023-05-10T02:34:50;15.10;66.80
33863;DHT22;20158;51.436;-2.742;2023-05-10T02:37:20;15.00;66.70
33863;DHT22;20158;51.436;-2.742;2023-05-10T02:39:47;15.00;66.70
33863;DHT22;20158;51.436;-2.742;2023-05-10T02:42:16;15.00;66.70
33863;DHT22;20158;51.436;-2.742;2023-05-10T02:44:45;15.00;66.70
33863;DHT22;20158;51.436;-2.742;2023-05-10T02:47:15;15.00;66.70
33863;DHT22;20158;51.436;-2.742;2023-05-10T02:49:41;15.00;66.80
33863;DHT22;20158;51.436;-2.742;2023-05-10T02:52:08;15.00;66.80
33863;DHT22;20158;51.436;-2.742;2023-05-10T02:54:44;15.00;66.80
33863;DHT22;20158;51.436;-2.742;2023-05-10T02:57:16;15.00;66.80
33863;DHT22;20158;51.436;-2.742;2023-05-10T02:59:44;15.00;66.80
33863;DHT22;20158;51.436;-2.742;2023-05-10T03:02:12;15.00;66.80
33863;DHT22;20158;51.436;-2.742;2023-05-10T03:04:38;15.00;66.80
33863;DHT22;20158;51.436;-2.742;2023-05-10T03:07:04;15.00;66.80
33863;DHT22;20158;51.436;-2.742;2023-05-10T03:09:31;15.00;66.80
33863;DHT22;20158;51.436;-2.742;2023-05-10T03:12:04;15.00;66.90
33863;DHT22;20158;51.436;-2.742;2023-05-10T03:20:10;14.90;66.70
33863;DHT22;20158;51.436;-2.742;2023-05-10T03:22:50;15.00;66.90
33863;DHT22;20158;51.436;-2.742;2023-05-10T03:25:19;15.00;66.90
33863;DHT22;20158;51.436;-2.742;2023-05-10T03:27:46;14.90;66.70
33863;DHT22;20158;51.436;-2.742;2023-05-10T03:30:13;14.90;66.70
33863;DHT22;20158;51.436;-2.742;2023-05-10T03:32:40;14.90;66.80
33863;DHT22;20158;51.436;-2.742;2023-05-10T03:35:08;14.90;66.90
33863;DHT22;20158;51.436;-2.742;2023-05-10T03:37:35;14.90;66.90
33863;DHT22;20158;51.436;-2.742;2023-05-10T03:40:02;14.80;66.70
33863;DHT22;20158;51.436;-2.742;2023-05-10T03:42:30;14.90;67.00
33863;DHT22;20158;51.436;-2.742;2023-05-10T03:44:56;14.80;66.80
33863;DHT22;20158;51.436;-2.742;2023-05-10T03:47:22;14.80;66.90
33863;DHT22;20158;51.436;-2.742;2023-05-10T03:49:48;14.80;66.90
33863;DHT22;20158;51.436;-2.742;2023-05-10T03:52:13;14.80;66.90
33863;DHT22;20158;51.436;-2.742;2023-05-10T03:54:39;14.70;66.70
33863;DHT22;20158;51.436;-2.742;2023-05-10T03:57:05;14.80;67.00
33863;DHT22;20158;51.436;-2.742;2023-05-10T03:59:32;14.70;66.90
33863;DHT22;20158;51.436;-2.742;2023-05-10T04:01:58;14.70;66.90
33863;DHT22;20158;51.436;-2.742;2023-05-10T04:04:23;14.70;67.00
33863;DHT22;20158;51.436;-2.742;2023-05-10T04:06:49;14.70;66.90
33863;DHT22;20158;51.436;-2.742;2023-05-10T04:09:15;14.70;67.00
33863;DHT22;20158;51.436;-2.742;2023-05-10T04:11:42;14.70;67.00
33863;DHT22;20158;51.436;-2.742;2023-05-10T04:14:09;14.60;66.90
33863;DHT22;20158;51.436;-2.742;2023-05-10T04:16:34;14.60;66.90
33863;DHT22;20158;51.436;-2.742;2023-05-10T04:19:00;14.60;66.90
33863;DHT22;20158;51.436;-2.742;2023-05-10T04:21:26;14.60;66.90
33863;DHT22;20158;51.436;-2.742;2023-05-10T04:23:52;14.60;66.90
33863;DHT22;20158;51.436;-2.742;2023-05-10T04:26:18;14.60;67.00
33863;DHT22;20158;51.436;-2.742;2023-05-10T04:28:44;14.60;67.00
33863;DHT22;20158;51.436;-2.742;2023-05-10T04:31:10;14.60;67.00
33863;DHT22;20158;51.436;-2.742;2023-05-10T04:33:36;14.60;67.00
33863;DHT22;20158;51.436;-2.742;2023-05-10T04:36:03;14.60;67.10
33863;DHT22;20158;51.436;-2.742;2023-05-10T04:38:29;14.60;67.10
33863;DHT22;20158;51.436;-2.742;2023-05-10T04:41:07;14.60;67.10
33863;DHT22;20158;51.436;-2.742;2023-05-10T04:43:33;14.60;67.70
33863;DHT22;20158;51.436;-2.742;2023-05-10T04:45:59;14.50;66.90
33863;DHT22;20158;51.436;-2.742;2023-05-10T04:48:25;14.60;67.40
33863;DHT22;20158;51.436;-2.742;2023-05-10T04:50:51;14.60;67.10
33863;DHT22;20158;51.436;-2.742;2023-05-10T04:53:17;14.60;67.10
33863;DHT22;20158;51.436;-2.742;2023-05-10T04:55:43;14.60;67.10
33863;DHT22;20158;51.436;-2.742;2023-05-10T04:58:09;14.60;67.10
33863;DHT22;20158;51.436;-2.742;2023-05-10T05:00:35;14.60;67.10
33863;DHT22;20158;51.436;-2.742;2023-05-10T05:03:01;14.60;67.10
33863;DHT22;20158;51.436;-2.742;2023-05-10T05:05:27;14.60;67.10
33863;DHT22;20158;51.436;-2.742;2023-05-10T05:07:53;14.60;67.00
33863;DHT22;20158;51.436;-2.742;2023-05-10T05:10:19;14.70;67.10
33863;DHT22;20158;51.436;-2.742;2023-05-10T05:12:45;14.70;67.10
33863;DHT22;20158;51.436;-2.742;2023-05-10T05:15:11;14.70;67.10
33863;DHT22;20158;51.436;-2.742;2023-05-10T05:17:37;14.70;67.00
33863;DHT22;20158;51.436;-2.742;2023-05-10T05:20:04;14.70;66.90
33863;DHT22;20158;51.436;-2.742;2023-05-10T05:22:30;14.80;67.10
33863;DHT22;20158;51.436;-2.742;2023-05-10T05:24:56;14.80;67.00
33863;DHT22;20158;51.436;-2.742;2023-05-10T05:27:24;14.80;66.90
33863;DHT22;20158;51.436;-2.742;2023-05-10T05:29:53;14.80;66.90
33863;DHT22;20158;51.436;-2.742;2023-05-10T05:32:20;14.80;66.80
33863;DHT22;20158;51.436;-2.742;2023-05-10T05:34:46;14.90;66.90
33863;DHT22;20158;51.436;-2.742;2023-05-10T05:37:15;14.90;66.80
33863;DHT22;20158;51.436;-2.742;2023-05-10T05:39:42;15.00;67.00
33863;DHT22;20158;51.436;-2.742;2023-05-10T05:42:09;15.10;67.00
33863;DHT22;20158;51.436;-2.742;2023-05-10T05:44:35;15.20;66.90
33863;DHT22;20158;51.436;-2.742;2023-05-10T05:47:02;15.30;66.80
33863;DHT22;20158;51.436;-2.742;2023-05-10T05:49:28;15.50;66.90
33863;DHT22;20158;51.436;-2.742;2023-05-10T05:51:54;15.70;67.00
33863;DHT22;20158;51.436;-2.742;2023-05-10T05:54:20;16.00;67.70
33863;DHT22;20158;51.436;-2.742;2023-05-10T05:56:46;16.20;68.00
33863;DHT22;20158;51.436;-2.742;2023-05-10T05:59:12;16.50;68.50
33863;DHT22;20158;51.436;-2.742;2023-05-10T06:01:37;16.80;68.80
33863;DHT22;20158;51.436;-2.742;2023-05-10T06:04:03;17.10;68.90
33863;DHT22;20158;51.436;-2.742;2023-05-10T06:06:29;17.40;69.00
33863;DHT22;20158;51.436;-2.742;2023-05-10T06:08:55;17.70;69.20
33863;DHT22;20158;51.436;-2.742;2023-05-10T06:11:21;17.90;69.20
33863;DHT22;20158;51.436;-2.742;2023-05-10T06:13:47;18.10;69.30
33863;DHT22;20158;51.436;-2.742;2023-05-10T06:16:13;18.40;69.50
33863;DHT22;20158;51.436;-2.742;2023-05-10T06:18:39;18.80;69.70
33863;DHT22;20158;51.436;-2.742;2023-05-10T06:21:05;19.10;69.60
33863;DHT22;20158;51.436;-2.742;2023-05-10T06:23:31;19.50;69.50
33863;DHT22;20158;51.436;-2.742;2023-05-10T06:25:57;19.70;68.90
33863;DHT22;20158;51.436;-2.742;2023-05-10T06:28:23;19.90;68.70
33863;DHT22;20158;51.436;-2.742;2023-05-10T06:30:49;19.90;68.30
33863;DHT22;20158;51.436;-2.742;2023-05-10T06:33:15;19.80;68.10
33863;DHT22;20158;51.436;-2.742;2023-05-10T06:35:41;19.80;68.00
33863;DHT22;20158;51.436;-2.742;2023-05-10T06:38:07;19.70;67.90
33863;DHT22;20158;51.436;-2.742;2023-05-10T06:40:33;19.60;67.90
33863;DHT22;20158;51.436;-2.742;2023-05-10T06:42:59;19.50;67.80
33863;DHT22;20158;51.436;-2.742;2023-05-10T06:45:25;19.40;67.70
33863;DHT22;20158;51.436;-2.742;2023-05-10T06:47:51;19.30;68.10
33863;DHT22;20158;51.436;-2.742;2023-05-10T06:50:17;19.30;67.80
33863;DHT22;20158;51.436;-2.742;2023-05-10T06:52:42;19.20;67.80
33863;DHT22;20158;51.436;-2.742;2023-05-10T06:55:09;19.30;68.00
33863;DHT22;20158;51.436;-2.742;2023-05-10T06:57:35;19.30;67.80
33863;DHT22;20158;51.436;-2.742;2023-05-10T07:00:01;19.30;67.60
33863;DHT22;20158;51.436;-2.742;2023-05-10T07:02:29;19.30;67.60
33863;DHT22;20158;51.436;-2.742;2023-05-10T07:04:55;19.40;67.60
33863;DHT22;20158;51.436;-2.742;2023-05-10T07:07:21;19.30;67.30
33863;DHT22;20158;51.436;-2.742;2023-05-10T07:09:47;19.30;67.30
33863;DHT22;20158;51.436;-2.742;2023-05-10T07:12:15;19.30;67.30
33863;DHT22;20158;51.436;-2.742;2023-05-10T07:14:41;19.30;67.20
33863;DHT22;20158;51.436;-2.742;2023-05-10T07:17:08;19.30;67.10
33863;DHT22;20158;51.436;-2.742;2023-05-10T07:19:34;19.20;67.00
33863;DHT22;20158;51.436;-2.742;2023-05-10T07:22:00;19.20;67.10
33863;DHT22;20158;51.436;-2.742;2023-05-10T07:24:28;19.20;67.10
33863;DHT22;20158;51.436;-2.742;2023-05-10T07:26:54;19.30;67.10
33863;DHT22;20158;51.436;-2.742;2023-05-10T07:29:20;19.30;66.90
33863;DHT22;20158;51.436;-2.742;2023-05-10T07:31:45;19.30;66.80
33863;DHT22;20158;51.436;-2.742;2023-05-10T07:34:12;19.40;67.00
33863;DHT22;20158;51.436;-2.742;2023-05-10T07:36:38;19.40;66.90
33863;DHT22;20158;51.436;-2.742;2023-05-10T07:39:04;19.30;66.80
33863;DHT22;20158;51.436;-2.742;2023-05-10T07:41:30;19.30;66.80
33863;DHT22;20158;51.436;-2.742;2023-05-10T07:43:56;19.30;66.90
33863;DHT22;20158;51.436;-2.742;2023-05-10T07:46:22;19.20;66.70
33863;DHT22;20158;51.436;-2.742;2023-05-10T07:48:48;19.20;66.80
33863;DHT22;20158;51.436;-2.742;2023-05-10T07:51:13;19.20;66.80
33863;DHT22;20158;51.436;-2.742;2023-05-10T07:53:40;19.20;66.80
33863;DHT22;20158;51.436;-2.742;2023-05-10T07:56:23;19.20;66.80
33863;DHT22;20158;51.436;-2.742;2023-05-10T07:59:04;19.30;66.80
33863;DHT22;20158;51.436;-2.742;2023-05-10T08:01:32;19.40;66.70
33863;DHT22;20158;51.436;-2.742;2023-05-10T08:03:59;19.40;66.60
33863;DHT22;20158;51.436;-2.742;2023-05-10T08:06:25;19.50;66.80
33863;DHT22;20158;51.436;-2.742;2023-05-10T08:08:54;19.50;66.80
33863;DHT22;20158;51.436;-2.742;2023-05-10T08:11:21;19.60;66.90
33863;DHT22;20158;51.436;-2.742;2023-05-10T08:13:48;19.70;67.00
33863;DHT22;20158;51.436;-2.742;2023-05-10T08:16:14;19.80;66.90
33863;DHT22;20158;51.436;-2.742;2023-05-10T08:18:41;19.80;66.70
33863;DHT22;20158;51.436;-2.742;2023-05-10T08:21:07;19.90;66.90
33863;DHT22;20158;51.436;-2.742;2023-05-10T08:23:33;20.00;67.10
33863;DHT22;20158;51.436;-2.742;2023-05-10T08:25:59;20.30;67.60
33863;DHT22;20158;51.436;-2.742;2023-05-10T08:28:25;20.40;67.60
33863;DHT22;20158;51.436;-2.742;2023-05-10T08:30:51;20.60;67.70
33863;DHT22;20158;51.436;-2.742;2023-05-10T08:33:18;20.80;67.70
33863;DHT22;20158;51.436;-2.742;2023-05-10T08:35:44;21.20;68.00
33863;DHT22;20158;51.436;-2.742;2023-05-10T08:38:10;21.60;67.90
33863;DHT22;20158;51.436;-2.742;2023-05-10T08:40:43;22.00;67.60
33863;DHT22;20158;51.436;-2.742;2023-05-10T08:43:11;22.30;67.10
33863;DHT22;20158;51.436;-2.742;2023-05-10T08:45:42;22.50;66.80
33863;DHT22;20158;51.436;-2.742;2023-05-10T08:48:10;22.70;66.40
33863;DHT22;20158;51.436;-2.742;2023-05-10T08:50:38;22.90;66.40
33863;DHT22;20158;51.436;-2.742;2023-05-10T08:53:06;23.00;66.10
33863;DHT22;20158;51.436;-2.742;2023-05-10T08:55:33;23.20;65.90
33863;DHT22;20158;51.436;-2.742;2023-05-10T08:58:02;23.40;65.70
33863;DHT22;20158;51.436;-2.742;2023-05-10T09:00:29;23.50;65.30
33863;DHT22;20158;51.436;-2.742;2023-05-10T09:02:58;23.60;65.30
33863;DHT22;20158;51.436;-2.742;2023-05-10T09:05:24;23.70;65.10
33863;DHT22;20158;51.436;-2.742;2023-05-10T09:07:50;23.70;64.90
33863;DHT22;20158;51.436;-2.742;2023-05-10T09:10:16;23.70;64.70
33863;DHT22;20158;51.436;-2.742;2023-05-10T09:12:43;23.70;64.60
33863;DHT22;20158;51.436;-2.742;2023-05-10T09:15:09;23.70;64.40
33863;DHT22;20158;51.436;-2.742;2023-05-10T09:17:37;23.70;64.20
33863;DHT22;20158;51.436;-2.742;2023-05-10T09:20:04;23.80;64.20
33863;DHT22;20158;51.436;-2.742;2023-05-10T09:22:31;23.90;64.10
33863;DHT22;20158;51.436;-2.742;2023-05-10T09:25:09;23.90;63.90
33863;DHT22;20158;51.436;-2.742;2023-05-10T09:27:37;23.90;63.60
33863;DHT22;20158;51.436;-2.742;2023-05-10T09:30:04;24.00;63.70
33863;DHT22;20158;51.436;-2.742;2023-05-10T09:32:42;23.90;63.40
33863;DHT22;20158;51.436;-2.742;2023-05-10T09:35:18;23.90;63.30
33863;DHT22;20158;51.436;-2.742;2023-05-10T09:37:46;23.90;63.50
33863;DHT22;20158;51.436;-2.742;2023-05-10T09:40:15;24.00;63.20
33863;DHT22;20158;51.436;-2.742;2023-05-10T09:42:51;24.10;63.00
33863;DHT22;20158;51.436;-2.742;2023-05-10T09:45:17;24.30;63.00
33863;DHT22;20158;51.436;-2.742;2023-05-10T09:47:43;24.30;62.60
33863;DHT22;20158;51.436;-2.742;2023-05-10T09:50:09;24.50;62.70
33863;DHT22;20158;51.436;-2.742;2023-05-10T09:52:52;24.70;62.60
33863;DHT22;20158;51.436;-2.742;2023-05-10T09:55:22;24.90;62.20
33863;DHT22;20158;51.436;-2.742;2023-05-10T09:57:50;25.10;62.10
33863;DHT22;20158;51.436;-2.742;2023-05-10T10:00:23;25.20;61.70
33863;DHT22;20158;51.436;-2.742;2023-05-10T10:02:59;25.30;61.30
33863;DHT22;20158;51.436;-2.742;2023-05-10T10:05:32;25.40;60.70
33863;DHT22;20158;51.436;-2.742;2023-05-10T10:08:00;25.50;60.50
33863;DHT22;20158;51.436;-2.742;2023-05-10T10:10:26;25.50;60.40
33863;DHT22;20158;51.436;-2.742;2023-05-10T10:12:53;25.60;60.80
33863;DHT22;20158;51.436;-2.742;2023-05-10T10:15:23;25.60;59.90
33863;DHT22;20158;51.436;-2.742;2023-05-10T10:17:50;25.80;59.70
33863;DHT22;20158;51.436;-2.742;2023-05-10T10:20:16;25.90;59.40
33863;DHT22;20158;51.436;-2.742;2023-05-10T10:22:42;26.00;59.00
33863;DHT22;20158;51.436;-2.742;2023-05-10T10:25:14;26.00;58.80
33863;DHT22;20158;51.436;-2.742;2023-05-10T10:30:28;26.20;58.20
33863;DHT22;20158;51.436;-2.742;2023-05-10T10:35:38;26.20;58.20
33863;DHT22;20158;51.436;-2.742;2023-05-10T10:38:08;26.20;58.20
33863;DHT22;20158;51.436;-2.742;2023-05-10T10:40:34;26.20;58.00
33863;DHT22;20158;51.436;-2.742;2023-05-10T10:43:21;26.30;57.90
33863;DHT22;20158;51.436;-2.742;2023-05-10T10:46:23;26.50;57.50
33863;DHT22;20158;51.436;-2.742;2023-05-10T10:49:09;26.50;57.20
33863;DHT22;20158;51.436;-2.742;2023-05-10T10:51:39;26.60;57.10
33863;DHT22;20158;51.436;-2.742;2023-05-10T10:54:11;26.60;57.20
33863;DHT22;20158;51.436;-2.742;2023-05-10T10:56:37;26.60;57.00
33863;DHT22;20158;51.436;-2.742;2023-05-10T10:59:04;26.60;57.00
33863;DHT22;20158;51.436;-2.742;2023-05-10T11:01:33;26.70;56.80
33863;DHT22;20158;51.436;-2.742;2023-05-10T11:06:32;27.00;56.40
33863;DHT22;20158;51.436;-2.742;2023-05-10T11:09:09;27.20;56.20
33863;DHT22;20158;51.436;-2.742;2023-05-10T11:11:36;27.40;55.90
33863;DHT22;20158;51.436;-2.742;2023-05-10T11:14:13;27.50;55.40
33863;DHT22;20158;51.436;-2.742;2023-05-10T11:16:41;27.70;55.30
33863;DHT22;20158;51.436;-2.742;2023-05-10T11:19:11;27.90;55.10
33863;DHT22;20158;51.436;-2.742;2023-05-10T11:21:51;28.10;54.80
33863;DHT22;20158;51.436;-2.742;2023-05-10T11:24:21;28.20;54.40
33863;DHT22;20158;51.436;-2.742;2023-05-10T11:26:50;28.40;54.40
33863;DHT22;20158;51.436;-2.742;2023-05-10T11:29:17;28.60;54.00
33863;DHT22;20158;51.436;-2.742;2023-05-10T11:31:47;28.80;53.70
33863;DHT22;20158;51.436;-2.742;2023-05-10T11:34:30;29.00;53.20
33863;DHT22;20158;51.436;-2.742;2023-05-10T11:36:59;29.20;52.80
33863;DHT22;20158;51.436;-2.742;2023-05-10T11:39:27;29.40;52.80
33863;DHT22;20158;51.436;-2.742;2023-05-10T11:41:53;29.40;52.40
33863;DHT22;20158;51.436;-2.742;2023-05-10T11:44:19;29.60;52.20
33863;DHT22;20158;51.436;-2.742;2023-05-10T11:46:45;29.70;52.00
33863;DHT22;20158;51.436;-2.742;2023-05-10T11:49:11;29.70;51.70
33863;DHT22;20158;51.436;-2.742;2023-05-10T11:51:39;29.90;51.50
33863;DHT22;20158;51.436;-2.742;2023-05-10T11:54:06;30.00;51.30
33863;DHT22;20158;51.436;-2.742;2023-05-10T11:56:34;30.30;51.00
33863;DHT22;20158;51.436;-2.742;2023-05-10T11:59:01;30.50;50.60
33863;DHT22;20158;51.436;-2.742;2023-05-10T12:01:28;30.70;50.20
33863;DHT22;20158;51.436;-2.742;2023-05-10T12:03:56;30.80;50.00
33863;DHT22;20158;51.436;-2.742;2023-05-10T12:06:27;30.90;49.80
33863;DHT22;20158;51.436;-2.742;2023-05-10T12:08:54;30.90;49.70
33863;DHT22;20158;51.436;-2.742;2023-05-10T12:11:20;30.90;49.70
33863;DHT22;20158;51.436;-2.742;2023-05-10T12:13:47;30.90;50.00
33863;DHT22;20158;51.436;-2.742;2023-05-10T12:18:44;30.90;49.00
33863;DHT22;20158;51.436;-2.742;2023-05-10T12:21:12;30.80;49.00
33863;DHT22;20158;51.436;-2.742;2023-05-10T12:23:39;30.70;49.00
33863;DHT22;20158;51.436;-2.742;2023-05-10T12:26:06;30.60;49.00
33863;DHT22;20158;51.436;-2.742;2023-05-10T12:28:33;30.60;49.10
33863;DHT22;20158;51.436;-2.742;2023-05-10T12:30:59;30.50;49.00
33863;DHT22;20158;51.436;-2.742;2023-05-10T12:33:25;30.60;49.00
33863;DHT22;20158;51.436;-2.742;2023-05-10T12:35:53;30.60;48.50
33863;DHT22;20158;51.436;-2.742;2023-05-10T12:38:43;30.50;48.40
33863;DHT22;20158;51.436;-2.742;2023-05-10T12:41:11;30.30;48.20
33863;DHT22;20158;51.436;-2.742;2023-05-10T12:43:38;30.10;48.60
33863;DHT22;20158;51.436;-2.742;2023-05-10T12:46:08;30.00;48.80
33863;DHT22;20158;51.436;-2.742;2023-05-10T12:48:35;29.90;48.90
33863;DHT22;20158;51.436;-2.742;2023-05-10T12:51:02;29.90;48.90
33863;DHT22;20158;51.436;-2.742;2023-05-10T12:53:28;30.00;48.90
33863;DHT22;20158;51.436;-2.742;2023-05-10T12:55:54;30.00;49.00
33863;DHT22;20158;51.436;-2.742;2023-05-10T12:58:20;29.90;49.10
33863;DHT22;20158;51.436;-2.742;2023-05-10T13:00:46;29.90;49.20
33863;DHT22;20158;51.436;-2.742;2023-05-10T13:03:12;29.90;49.20
33863;DHT22;20158;51.436;-2.742;2023-05-10T13:05:38;29.90;49.20
33863;DHT22;20158;51.436;-2.742;2023-05-10T13:08:04;29.90;49.00
33863;DHT22;20158;51.436;-2.742;2023-05-10T13:10:31;29.90;49.00
33863;DHT22;20158;51.436;-2.742;2023-05-10T13:12:58;29.90;49.00
33863;DHT22;20158;51.436;-2.742;2023-05-10T13:15:25;30.00;49.00
33863;DHT22;20158;51.436;-2.742;2023-05-10T13:17:51;30.10;48.80
33863;DHT22;20158;51.436;-2.742;2023-05-10T13:20:17;30.30;48.70
33863;DHT22;20158;51.436;-2.742;2023-05-10T13:22:43;30.40;48.40
33863;DHT22;20158;51.436;-2.742;2023-05-10T13:25:09;30.60;48.20
33863;DHT22;20158;51.436;-2.742;2023-05-10T13:27:37;30.80;48.00
33863;DHT22;20158;51.436;-2.742;2023-05-10T13:30:03;30.90;47.80
33863;DHT22;20158;51.436;-2.742;2023-05-10T13:32:29;31.10;47.60
33863;DHT22;20158;51.436;-2.742;2023-05-10T13:34:56;31.20;47.40
33863;DHT22;20158;51.436;-2.742;2023-05-10T13:37:22;31.40;47.30
33863;DHT22;20158;51.436;-2.742;2023-05-10T13:39:48;31.40;47.00
33863;DHT22;20158;51.436;-2.742;2023-05-10T13:42:14;31.60;47.00
33863;DHT22;20158;51.436;-2.742;2023-05-10T13:44:40;31.60;46.80
33863;DHT22;20158;51.436;-2.742;2023-05-10T13:47:06;31.70;46.60
33863;DHT22;20158;51.436;-2.742;2023-05-10T13:49:32;31.80;46.50
33863;DHT22;20158;51.436;-2.742;2023-05-10T13:51:59;31.90;47.00
33863;DHT22;20158;51.436;-2.742;2023-05-10T13:54:35;32.00;46.20
33863;DHT22;20158;51.436;-2.742;2023-05-10T13:57:01;32.20;46.00
33863;DHT22;20158;51.436;-2.742;2023-05-10T13:59:28;32.30;45.90
33863;DHT22;20158;51.436;-2.742;2023-05-10T14:01:54;32.50;45.70
33863;DHT22;20158;51.436;-2.742;2023-05-10T14:04:20;32.70;45.60
33863;DHT22;20158;51.436;-2.742;2023-05-10T14:06:46;32.70;45.40
33863;DHT22;20158;51.436;-2.742;2023-05-10T14:09:12;32.80;45.40
33863;DHT22;20158;51.436;-2.742;2023-05-10T14:11:38;32.90;45.30
33863;DHT22;20158;51.436;-2.742;2023-05-10T14:14:09;33.10;45.20
33863;DHT22;20158;51.436;-2.742;2023-05-10T14:16:35;33.20;45.10
33863;DHT22;20158;51.436;-2.742;2023-05-10T14:19:01;33.30;44.80
33863;DHT22;20158;51.436;-2.742;2023-05-10T14:21:27;33.40;44.70
33863;DHT22;20158;51.436;-2.742;2023-05-10T14:23:55;33.50;44.60
33863;DHT22;20158;51.436;-2.742;2023-05-10T14:26:21;33.50;44.40
33863;DHT22;20158;51.436;-2.742;2023-05-10T14:28:47;33.60;44.30
33863;DHT22;20158;51.436;-2.742;2023-05-10T14:31:13;33.70;44.30
33863;DHT22;20158;51.436;-2.742;2023-05-10T14:33:40;33.80;44.20
33863;DHT22;20158;51.436;-2.742;2023-05-10T14:36:07;33.90;44.70
33863;DHT22;20158;51.436;-2.742;2023-05-10T14:38:32;33.90;43.90
33863;DHT22;20158;51.436;-2.742;2023-05-10T14:40:58;34.00;43.70
33863;DHT22;20158;51.436;-2.742;2023-05-10T14:43:27;34.00;43.60
33863;DHT22;20158;51.436;-2.742;2023-05-10T14:45:53;34.10;43.50
33863;DHT22;20158;51.436;-2.742;2023-05-10T14:48:19;34.20;43.40
33863;DHT22;20158;51.436;-2.742;2023-05-10T14:50:46;34.30;43.30
33863;DHT22;20158;51.436;-2.742;2023-05-10T14:53:12;34.40;43.10
33863;DHT22;20158;51.436;-2.742;2023-05-10T14:55:38;34.40;42.90
33863;DHT22;20158;51.436;-2.742;2023-05-10T14:58:05;34.50;42.80
33863;DHT22;20158;51.436;-2.742;2023-05-10T15:00:30;34.60;42.70
33863;DHT22;20158;51.436;-2.742;2023-05-10T15:03:06;34.70;42.70
33863;DHT22;20158;51.436;-2.742;2023-05-10T15:05:34;34.70;42.50
33863;DHT22;20158;51.436;-2.742;2023-05-10T15:08:05;34.80;42.50
33863;DHT22;20158;51.436;-2.742;2023-05-10T15:10:31;34.80;42.40
33863;DHT22;20158;51.436;-2.742;2023-05-10T15:12:58;34.90;42.20
33863;DHT22;20158;51.436;-2.742;2023-05-10T15:15:24;34.90;42.00
33863;DHT22;20158;51.436;-2.742;2023-05-10T15:17:50;35.00;42.00
33863;DHT22;20158;51.436;-2.742;2023-05-10T15:20:17;35.00;41.90
33863;DHT22;20158;51.436;-2.742;2023-05-10T15:22:43;35.10;41.90
33863;DHT22;20158;51.436;-2.742;2023-05-10T15:25:08;35.00;41.80
33863;DHT22;20158;51.436;-2.742;2023-05-10T15:27:35;34.90;41.70
33863;DHT22;20158;51.436;-2.742;2023-05-10T15:30:05;34.70;41.70
33863;DHT22;20158;51.436;-2.742;2023-05-10T15:32:31;34.60;41.80
33863;DHT22;20158;51.436;-2.742;2023-05-10T15:34:57;34.40;41.90
33863;DHT22;20158;51.436;-2.742;2023-05-10T15:37:23;34.30;42.10
33863;DHT22;20158;51.436;-2.742;2023-05-10T15:39:50;34.10;42.10
33863;DHT22;20158;51.436;-2.742;2023-05-10T15:42:16;34.00;42.30
33863;DHT22;20158;51.436;-2.742;2023-05-10T15:44:42;33.90;42.40